sensor_id;sensor_type;location;lat;lon;timestamp;temperature;humidity
10121;DHT22;5100;45.176;5.714;2022-10-31T00:02:10;17.40;76.50
10121;DHT22;5100;45.176;5.714;2022-10-31T00:04:37;17.40;76.60
10121;DHT22;5100;45.176;5.714;2022-10-31T00:07:03;17.40;76.60
10121;DHT22;5100;45.176;5.714;2022-10-31T00:09:29;17.40;76.70
10121;DHT22;5100;45.176;5.714;2022-10-31T00:11:55;17.40;76.70
10121;DHT22;5100;45.176;5.714;2022-10-31T00:14:21;17.40;76.60
10121;DHT22;5100;45.176;5.714;2022-10-31T00:16:47;17.40;76.70
10121;DHT22;5100;45.176;5.714;2022-10-31T00:19:14;17.40;76.70
10121;DHT22;5100;45.176;5.714;2022-10-31T00:21:40;17.40;76.70
10121;DHT22;5100;45.176;5.714;2022-10-31T00:24:06;17.40;76.70
10121;DHT22;5100;45.176;5.714;2022-10-31T00:26:32;17.40;76.70
10121;DHT22;5100;45.176;5.714;2022-10-31T00:28:59;17.40;76.80
10121;DHT22;5100;45.176;5.714;2022-10-31T00:31:26;17.40;76.70
10121;DHT22;5100;45.176;5.714;2022-10-31T00:33:53;17.40;76.60
10121;DHT22;5100;45.176;5.714;2022-10-31T00:36:19;17.40;76.50
10121;DHT22;5100;45.176;5.714;2022-10-31T00:38:46;17.40;76.60
10121;DHT22;5100;45.176;5.714;2022-10-31T00:41:15;17.40;76.60
10121;DHT22;5100;45.176;5.714;2022-10-31T00:43:42;17.40;76.60
10121;DHT22;5100;45.176;5.714;2022-10-31T00:46:08;17.40;76.60
10121;DHT22;5100;45.176;5.714;2022-10-31T00:48:34;17.30;76.60
10121;DHT22;5100;45.176;5.714;2022-10-31T00:51:01;17.30;76.50
10121;DHT22;5100;45.176;5.714;2022-10-31T00:53:27;17.40;76.50
10121;DHT22;5100;45.176;5.714;2022-10-31T00:55:53;17.30;76.40
10121;DHT22;5100;45.176;5.714;2022-10-31T00:58:19;17.30;76.50
10121;DHT22;5100;45.176;5.714;2022-10-31T01:00:48;17.30;76.40
10121;DHT22;5100;45.176;5.714;2022-10-31T01:03:26;17.30;76.30
10121;DHT22;5100;45.176;5.714;2022-10-31T01:06:02;17.30;76.10
10121;DHT22;5100;45.176;5.714;2022-10-31T01:08:31;17.30;76.30
10121;DHT22;5100;45.176;5.714;2022-10-31T01:13:32;17.30;76.40
10121;DHT22;5100;45.176;5.714;2022-10-31T01:15:59;17.30;76.50
10121;DHT22;5100;45.176;5.714;2022-10-31T01:18:26;17.30;76.40
10121;DHT22;5100;45.176;5.714;2022-10-31T01:21:25;17.30;76.40
10121;DHT22;5100;45.176;5.714;2022-10-31T01:23:55;17.30;76.50
10121;DHT22;5100;45.176;5.714;2022-10-31T01:26:28;17.30;76.50
10121;DHT22;5100;45.176;5.714;2022-10-31T01:28:57;17.20;76.50
10121;DHT22;5100;45.176;5.714;2022-10-31T01:31:26;17.20;76.60
10121;DHT22;5100;45.176;5.714;2022-10-31T01:33:53;17.30;76.50
10121;DHT22;5100;45.176;5.714;2022-10-31T01:38:50;17.20;76.50
10121;DHT22;5100;45.176;5.714;2022-10-31T01:41:23;17.20;76.70
10121;DHT22;5100;45.176;5.714;2022-10-31T01:43:53;17.20;76.60
10121;DHT22;5100;45.176;5.714;2022-10-31T01:48:53;17.20;76.60
10121;DHT22;5100;45.176;5.714;2022-10-31T01:51:24;17.20;76.50
10121;DHT22;5100;45.176;5.714;2022-10-31T01:53:55;17.20;76.30
10121;DHT22;5100;45.176;5.714;2022-10-31T01:56:22;17.20;76.30
10121;DHT22;5100;45.176;5.714;2022-10-31T01:58:50;17.20;76.30
10121;DHT22;5100;45.176;5.714;2022-10-31T02:01:17;17.20;76.10
10121;DHT22;5100;45.176;5.714;2022-10-31T02:03:45;17.20;76.30
10121;DHT22;5100;45.176;5.714;2022-10-31T02:06:27;17.20;76.20
10121;DHT22;5100;45.176;5.714;2022-10-31T02:08:57;17.20;76.20
10121;DHT22;5100;45.176;5.714;2022-10-31T02:11:23;17.20;76.40
10121;DHT22;5100;45.176;5.714;2022-10-31T02:13:52;17.20;76.40
10121;DHT22;5100;45.176;5.714;2022-10-31T02:16:21;17.10;76.30
10121;DHT22;5100;45.176;5.714;2022-10-31T02:18:47;17.10;76.40
10121;DHT22;5100;45.176;5.714;2022-10-31T02:23:51;17.10;76.30
10121;DHT22;5100;45.176;5.714;2022-10-31T02:38:18;17.10;76.50
10121;DHT22;5100;45.176;5.714;2022-10-31T02:40:48;17.10;76.60
10121;DHT22;5100;45.176;5.714;2022-10-31T02:43:29;17.10;76.70
10121;DHT22;5100;45.176;5.714;2022-10-31T02:46:07;17.10;76.70
10121;DHT22;5100;45.176;5.714;2022-10-31T02:48:38;17.10;76.70
10121;DHT22;5100;45.176;5.714;2022-10-31T02:51:08;17.10;76.70
10121;DHT22;5100;45.176;5.714;2022-10-31T02:53:36;17.10;76.70
10121;DHT22;5100;45.176;5.714;2022-10-31T02:56:11;17.10;76.70
10121;DHT22;5100;45.176;5.714;2022-10-31T03:06:57;17.10;76.80
10121;DHT22;5100;45.176;5.714;2022-10-31T03:12:07;17.10;76.80
10121;DHT22;5100;45.176;5.714;2022-10-31T03:17:05;17.10;77.10
10121;DHT22;5100;45.176;5.714;2022-10-31T03:19:38;17.10;77.10
10121;DHT22;5100;45.176;5.714;2022-10-31T03:22:21;17.10;77.10
10121;DHT22;5100;45.176;5.714;2022-10-31T03:24:48;17.10;76.90
10121;DHT22;5100;45.176;5.714;2022-10-31T03:27:23;17.10;76.90
10121;DHT22;5100;45.176;5.714;2022-10-31T03:29:54;17.10;76.90
10121;DHT22;5100;45.176;5.714;2022-10-31T03:32:28;17.10;76.80
10121;DHT22;5100;45.176;5.714;2022-10-31T03:34:57;17.10;76.90
10121;DHT22;5100;45.176;5.714;2022-10-31T03:37:27;17.10;76.70
10121;DHT22;5100;45.176;5.714;2022-10-31T03:39:57;17.10;76.90
10121;DHT22;5100;45.176;5.714;2022-10-31T03:42:27;17.10;76.70
10121;DHT22;5100;45.176;5.714;2022-10-31T03:45:04;17.00;76.70
10121;DHT22;5100;45.176;5.714;2022-10-31T03:47:32;17.10;76.60
10121;DHT22;5100;45.176;5.714;2022-10-31T03:49:59;17.00;76.60
10121;DHT22;5100;45.176;5.714;2022-10-31T03:52:28;17.00;76.80
10121;DHT22;5100;45.176;5.714;2022-10-31T03:55:04;17.00;76.70
10121;DHT22;5100;45.176;5.714;2022-10-31T04:00:32;17.00;76.50
10121;DHT22;5100;45.176;5.714;2022-10-31T04:05:32;17.00;76.40
10121;DHT22;5100;45.176;5.714;2022-10-31T04:08:01;17.00;76.50
10121;DHT22;5100;45.176;5.714;2022-10-31T04:10:30;17.00;76.50
10121;DHT22;5100;45.176;5.714;2022-10-31T04:13:02;17.00;76.40
10121;DHT22;5100;45.176;5.714;2022-10-31T04:15:31;17.00;76.40
10121;DHT22;5100;45.176;5.714;2022-10-31T04:17:59;17.00;76.40
10121;DHT22;5100;45.176;5.714;2022-10-31T04:20:44;17.00;76.30
10121;DHT22;5100;45.176;5.714;2022-10-31T04:23:20;17.00;76.20
10121;DHT22;5100;45.176;5.714;2022-10-31T04:25:48;17.00;76.10
10121;DHT22;5100;45.176;5.714;2022-10-31T04:28:15;17.00;76.20
10121;DHT22;5100;45.176;5.714;2022-10-31T04:30:42;17.00;76.10
10121;DHT22;5100;45.176;5.714;2022-10-31T04:33:08;17.00;76.20
10121;DHT22;5100;45.176;5.714;2022-10-31T04:35:35;17.00;76.10
10121;DHT22;5100;45.176;5.714;2022-10-31T04:38:01;16.90;76.10
10121;DHT22;5100;45.176;5.714;2022-10-31T04:40:27;16.90;76.10
10121;DHT22;5100;45.176;5.714;2022-10-31T04:42:56;16.90;76.10
10121;DHT22;5100;45.176;5.714;2022-10-31T04:45:22;16.90;76.20
10121;DHT22;5100;45.176;5.714;2022-10-31T04:47:49;16.90;76.10
10121;DHT22;5100;45.176;5.714;2022-10-31T04:50:16;16.90;76.10
10121;DHT22;5100;45.176;5.714;2022-10-31T04:52:44;16.90;76.20
10121;DHT22;5100;45.176;5.714;2022-10-31T04:55:11;16.90;76.20
10121;DHT22;5100;45.176;5.714;2022-10-31T04:57:46;16.90;76.20
10121;DHT22;5100;45.176;5.714;2022-10-31T05:00:14;16.90;76.40
10121;DHT22;5100;45.176;5.714;2022-10-31T05:02:45;16.90;76.40
10121;DHT22;5100;45.176;5.714;2022-10-31T05:05:16;16.90;76.50
10121;DHT22;5100;45.176;5.714;2022-10-31T05:07:43;16.90;76.40
10121;DHT22;5100;45.176;5.714;2022-10-31T05:10:11;16.90;76.40
10121;DHT22;5100;45.176;5.714;2022-10-31T05:12:44;16.90;76.60
10121;DHT22;5100;45.176;5.714;2022-10-31T05:15:16;16.80;76.50
10121;DHT22;5100;45.176;5.714;2022-10-31T05:17:45;16.80;76.30
10121;DHT22;5100;45.176;5.714;2022-10-31T05:20:14;16.80;76.40
10121;DHT22;5100;45.176;5.714;2022-10-31T05:22:46;16.80;76.40
10121;DHT22;5100;45.176;5.714;2022-10-31T05:25:13;16.80;76.40
10121;DHT22;5100;45.176;5.714;2022-10-31T05:27:41;16.80;76.50
10121;DHT22;5100;45.176;5.714;2022-10-31T05:30:09;16.80;76.40
10121;DHT22;5100;45.176;5.714;2022-10-31T05:32:43;16.80;76.40
10121;DHT22;5100;45.176;5.714;2022-10-31T05:35:17;16.80;76.30
10121;DHT22;5100;45.176;5.714;2022-10-31T05:37:45;16.80;76.20
10121;DHT22;5100;45.176;5.714;2022-10-31T05:40:12;16.80;76.20
10121;DHT22;5100;45.176;5.714;2022-10-31T05:42:40;16.80;76.20
10121;DHT22;5100;45.176;5.714;2022-10-31T05:45:12;16.80;76.20
10121;DHT22;5100;45.176;5.714;2022-10-31T05:47:39;16.80;76.10
10121;DHT22;5100;45.176;5.714;2022-10-31T05:50:09;16.70;76.20
10121;DHT22;5100;45.176;5.714;2022-10-31T05:52:38;16.70;76.20
10121;DHT22;5100;45.176;5.714;2022-10-31T05:55:04;16.70;76.10
10121;DHT22;5100;45.176;5.714;2022-10-31T05:57:32;16.70;75.90
10121;DHT22;5100;45.176;5.714;2022-10-31T05:59:59;16.70;75.90
10121;DHT22;5100;45.176;5.714;2022-10-31T06:02:25;16.70;75.80
10121;DHT22;5100;45.176;5.714;2022-10-31T06:04:54;16.70;75.70
10121;DHT22;5100;45.176;5.714;2022-10-31T06:07:21;16.70;75.70
10121;DHT22;5100;45.176;5.714;2022-10-31T06:09:47;16.70;75.80
10121;DHT22;5100;45.176;5.714;2022-10-31T06:12:14;16.60;75.90
10121;DHT22;5100;45.176;5.714;2022-10-31T06:14:43;16.60;75.90
10121;DHT22;5100;45.176;5.714;2022-10-31T06:17:08;16.60;76.00
10121;DHT22;5100;45.176;5.714;2022-10-31T06:19:38;16.60;76.10
10121;DHT22;5100;45.176;5.714;2022-10-31T06:22:04;16.60;76.20
10121;DHT22;5100;45.176;5.714;2022-10-31T06:24:31;16.60;76.20
10121;DHT22;5100;45.176;5.714;2022-10-31T06:26:58;16.60;76.30
10121;DHT22;5100;45.176;5.714;2022-10-31T06:29:25;16.60;76.40
10121;DHT22;5100;45.176;5.714;2022-10-31T06:31:52;16.60;76.40
10121;DHT22;5100;45.176;5.714;2022-10-31T06:34:18;16.60;76.50
10121;DHT22;5100;45.176;5.714;2022-10-31T06:36:46;16.60;76.50
10121;DHT22;5100;45.176;5.714;2022-10-31T06:39:13;16.60;76.40
10121;DHT22;5100;45.176;5.714;2022-10-31T06:41:39;16.60;76.30
10121;DHT22;5100;45.176;5.714;2022-10-31T06:44:09;16.60;76.50
10121;DHT22;5100;45.176;5.714;2022-10-31T06:46:37;16.60;76.50
10121;DHT22;5100;45.176;5.714;2022-10-31T06:49:06;16.60;76.50
10121;DHT22;5100;45.176;5.714;2022-10-31T06:51:32;16.60;76.60
10121;DHT22;5100;45.176;5.714;2022-10-31T06:53:58;16.60;76.80
10121;DHT22;5100;45.176;5.714;2022-10-31T06:56:26;16.60;76.70
10121;DHT22;5100;45.176;5.714;2022-10-31T06:58:52;16.50;76.80
10121;DHT22;5100;45.176;5.714;2022-10-31T07:01:18;16.60;76.70
10121;DHT22;5100;45.176;5.714;2022-10-31T07:03:46;16.60;76.80
10121;DHT22;5100;45.176;5.714;2022-10-31T07:06:12;16.50;77.00
10121;DHT22;5100;45.176;5.714;2022-10-31T07:08:38;16.60;77.00
10121;DHT22;5100;45.176;5.714;2022-10-31T07:11:05;16.60;76.90
10121;DHT22;5100;45.176;5.714;2022-10-31T07:13:32;16.60;76.90
10121;DHT22;5100;45.176;5.714;2022-10-31T07:16:02;16.60;77.00
10121;DHT22;5100;45.176;5.714;2022-10-31T07:18:30;16.60;77.00
10121;DHT22;5100;45.176;5.714;2022-10-31T07:20:56;16.60;77.10
10121;DHT22;5100;45.176;5.714;2022-10-31T07:23:22;16.60;77.00
10121;DHT22;5100;45.176;5.714;2022-10-31T07:25:55;16.60;76.90
10121;DHT22;5100;45.176;5.714;2022-10-31T07:28:21;16.60;77.00
10121;DHT22;5100;45.176;5.714;2022-10-31T07:30:55;16.70;77.00
10121;DHT22;5100;45.176;5.714;2022-10-31T07:33:21;16.70;77.00
10121;DHT22;5100;45.176;5.714;2022-10-31T07:35:52;16.70;76.90
10121;DHT22;5100;45.176;5.714;2022-10-31T07:38:21;16.70;76.80
10121;DHT22;5100;45.176;5.714;2022-10-31T07:40:52;16.80;76.80
10121;DHT22;5100;45.176;5.714;2022-10-31T07:43:19;16.80;76.60
10121;DHT22;5100;45.176;5.714;2022-10-31T07:45:50;16.80;76.60
10121;DHT22;5100;45.176;5.714;2022-10-31T07:48:20;16.80;76.60
10121;DHT22;5100;45.176;5.714;2022-10-31T07:50:52;16.90;76.50
10121;DHT22;5100;45.176;5.714;2022-10-31T07:53:20;16.90;76.60
10121;DHT22;5100;45.176;5.714;2022-10-31T07:55:47;16.90;76.50
10121;DHT22;5100;45.176;5.714;2022-10-31T07:58:16;16.90;76.60
10121;DHT22;5100;45.176;5.714;2022-10-31T08:00:44;17.00;76.60
10121;DHT22;5100;45.176;5.714;2022-10-31T08:03:14;17.00;76.70
10121;DHT22;5100;45.176;5.714;2022-10-31T08:05:41;17.00;76.70
10121;DHT22;5100;45.176;5.714;2022-10-31T08:08:10;17.00;76.70
10121;DHT22;5100;45.176;5.714;2022-10-31T08:10:37;17.10;76.70
10121;DHT22;5100;45.176;5.714;2022-10-31T08:13:07;17.10;76.70
10121;DHT22;5100;45.176;5.714;2022-10-31T08:15:34;17.10;76.60
10121;DHT22;5100;45.176;5.714;2022-10-31T08:18:04;17.20;76.60
10121;DHT22;5100;45.176;5.714;2022-10-31T08:20:37;17.20;76.40
10121;DHT22;5100;45.176;5.714;2022-10-31T08:23:04;17.30;76.30
10121;DHT22;5100;45.176;5.714;2022-10-31T08:25:33;17.30;76.10
10121;DHT22;5100;45.176;5.714;2022-10-31T08:28:00;17.30;75.90
10121;DHT22;5100;45.176;5.714;2022-10-31T08:30:29;17.40;75.90
10121;DHT22;5100;45.176;5.714;2022-10-31T08:33:07;17.40;75.80
10121;DHT22;5100;45.176;5.714;2022-10-31T08:35:38;17.50;75.70
10121;DHT22;5100;45.176;5.714;2022-10-31T08:38:09;17.60;75.40
10121;DHT22;5100;45.176;5.714;2022-10-31T08:40:36;17.60;75.20
10121;DHT22;5100;45.176;5.714;2022-10-31T08:43:10;17.70;75.10
10121;DHT22;5100;45.176;5.714;2022-10-31T08:45:37;17.70;75.00
10121;DHT22;5100;45.176;5.714;2022-10-31T08:48:09;17.70;75.00
10121;DHT22;5100;45.176;5.714;2022-10-31T08:50:36;17.70;75.00
10121;DHT22;5100;45.176;5.714;2022-10-31T08:53:09;17.70;75.00
10121;DHT22;5100;45.176;5.714;2022-10-31T08:55:39;17.70;74.90
10121;DHT22;5100;45.176;5.714;2022-10-31T08:58:09;17.80;74.60
10121;DHT22;5100;45.176;5.714;2022-10-31T09:00:36;17.80;74.70
10121;DHT22;5100;45.176;5.714;2022-10-31T09:03:05;17.80;74.80
10121;DHT22;5100;45.176;5.714;2022-10-31T09:05:32;17.80;74.90
10121;DHT22;5100;45.176;5.714;2022-10-31T09:08:00;17.90;75.00
10121;DHT22;5100;45.176;5.714;2022-10-31T09:10:27;17.90;75.10
10121;DHT22;5100;45.176;5.714;2022-10-31T09:13:00;17.90;75.10
10121;DHT22;5100;45.176;5.714;2022-10-31T09:15:28;17.90;74.90
10121;DHT22;5100;45.176;5.714;2022-10-31T09:17:55;18.00;74.70
10121;DHT22;5100;45.176;5.714;2022-10-31T09:20:22;18.00;74.60
10121;DHT22;5100;45.176;5.714;2022-10-31T09:22:56;18.00;74.60
10121;DHT22;5100;45.176;5.714;2022-10-31T09:25:23;18.00;74.40
10121;DHT22;5100;45.176;5.714;2022-10-31T09:27:51;18.10;74.00
10121;DHT22;5100;45.176;5.714;2022-10-31T09:30:17;18.10;73.80
10121;DHT22;5100;45.176;5.714;2022-10-31T09:32:43;18.10;73.70
10121;DHT22;5100;45.176;5.714;2022-10-31T09:35:09;18.10;73.80
10121;DHT22;5100;45.176;5.714;2022-10-31T09:37:35;18.10;73.80
10121;DHT22;5100;45.176;5.714;2022-10-31T09:40:01;18.10;73.80
10121;DHT22;5100;45.176;5.714;2022-10-31T09:45:23;18.20;73.30
10121;DHT22;5100;45.176;5.714;2022-10-31T09:50:51;18.20;73.30
10121;DHT22;5100;45.176;5.714;2022-10-31T09:56:16;18.30;73.50
10121;DHT22;5100;45.176;5.714;2022-10-31T09:58:45;18.30;73.50
10121;DHT22;5100;45.176;5.714;2022-10-31T10:01:31;18.30;73.40
10121;DHT22;5100;45.176;5.714;2022-10-31T10:04:28;18.30;73.50
10121;DHT22;5100;45.176;5.714;2022-10-31T10:06:51;18.30;73.70
10121;DHT22;5100;45.176;5.714;2022-10-31T10:09:26;18.40;73.90
10121;DHT22;5100;45.176;5.714;2022-10-31T10:12:28;18.40;73.70
10121;DHT22;5100;45.176;5.714;2022-10-31T10:18:35;18.40;73.70
10121;DHT22;5100;45.176;5.714;2022-10-31T10:21:38;18.40;74.00
10121;DHT22;5100;45.176;5.714;2022-10-31T10:29:58;18.50;74.10
10121;DHT22;5100;45.176;5.714;2022-10-31T10:32:29;18.50;74.10
10121;DHT22;5100;45.176;5.714;2022-10-31T10:37:43;18.60;73.50
10121;DHT22;5100;45.176;5.714;2022-10-31T10:40:21;18.60;73.50
10121;DHT22;5100;45.176;5.714;2022-10-31T10:48:43;18.60;72.70
10121;DHT22;5100;45.176;5.714;2022-10-31T10:51:20;18.60;72.50
10121;DHT22;5100;45.176;5.714;2022-10-31T10:59:32;18.70;72.10
10121;DHT22;5100;45.176;5.714;2022-10-31T11:02:00;18.70;72.10
10121;DHT22;5100;45.176;5.714;2022-10-31T11:04:33;18.70;71.40
10121;DHT22;5100;45.176;5.714;2022-10-31T11:07:01;18.70;70.90
10121;DHT22;5100;45.176;5.714;2022-10-31T11:09:27;18.70;70.40
10121;DHT22;5100;45.176;5.714;2022-10-31T11:11:54;18.70;69.70
10121;DHT22;5100;45.176;5.714;2022-10-31T11:14:22;18.80;69.50
10121;DHT22;5100;45.176;5.714;2022-10-31T11:17:25;18.80;69.60
10121;DHT22;5100;45.176;5.714;2022-10-31T11:19:42;18.80;69.60
10121;DHT22;5100;45.176;5.714;2022-10-31T11:22:15;18.80;69.30
10121;DHT22;5100;45.176;5.714;2022-10-31T11:24:42;18.80;69.50
10121;DHT22;5100;45.176;5.714;2022-10-31T11:27:16;18.80;69.60
10121;DHT22;5100;45.176;5.714;2022-10-31T11:29:46;18.80;69.60
10121;DHT22;5100;45.176;5.714;2022-10-31T11:32:19;18.80;69.70
10121;DHT22;5100;45.176;5.714;2022-10-31T11:34:51;18.80;69.90
10121;DHT22;5100;45.176;5.714;2022-10-31T11:37:30;18.90;70.50
10121;DHT22;5100;45.176;5.714;2022-10-31T11:40:04;18.90;70.40
10121;DHT22;5100;45.176;5.714;2022-10-31T11:42:41;18.90;70.50
10121;DHT22;5100;45.176;5.714;2022-10-31T11:45:17;18.90;70.60
10121;DHT22;5100;45.176;5.714;2022-10-31T11:47:50;18.90;70.50
10121;DHT22;5100;45.176;5.714;2022-10-31T11:50:30;18.90;70.40
10121;DHT22;5100;45.176;5.714;2022-10-31T11:52:57;18.90;70.70
10121;DHT22;5100;45.176;5.714;2022-10-31T11:57:57;19.00;70.90
10121;DHT22;5100;45.176;5.714;2022-10-31T12:00:27;19.00;70.70
10121;DHT22;5100;45.176;5.714;2022-10-31T12:06:19;19.00;71.00
10121;DHT22;5100;45.176;5.714;2022-10-31T12:08:47;19.00;71.10
10121;DHT22;5100;45.176;5.714;2022-10-31T12:16:49;19.10;71.50
10121;DHT22;5100;45.176;5.714;2022-10-31T12:29:52;19.10;71.20
10121;DHT22;5100;45.176;5.714;2022-10-31T12:37:52;19.20;70.70
10121;DHT22;5100;45.176;5.714;2022-10-31T12:46:26;19.40;70.60
10121;DHT22;5100;45.176;5.714;2022-10-31T12:49:20;19.40;70.50
10121;DHT22;5100;45.176;5.714;2022-10-31T13:02:38;19.60;71.40
10121;DHT22;5100;45.176;5.714;2022-10-31T13:05:18;19.60;71.50
10121;DHT22;5100;45.176;5.714;2022-10-31T13:08:05;19.70;71.90
10121;DHT22;5100;45.176;5.714;2022-10-31T13:10:40;19.70;71.90
10121;DHT22;5100;45.176;5.714;2022-10-31T13:16:15;19.70;72.30
10121;DHT22;5100;45.176;5.714;2022-10-31T13:18:48;19.80;72.20
10121;DHT22;5100;45.176;5.714;2022-10-31T13:21:22;19.80;72.40
10121;DHT22;5100;45.176;5.714;2022-10-31T13:23:50;19.80;72.70
10121;DHT22;5100;45.176;5.714;2022-10-31T13:26:37;19.80;72.70
10121;DHT22;5100;45.176;5.714;2022-10-31T13:29:36;19.90;72.90
10121;DHT22;5100;45.176;5.714;2022-10-31T13:32:03;19.90;72.30
10121;DHT22;5100;45.176;5.714;2022-10-31T13:43:14;20.00;71.70
10121;DHT22;5100;45.176;5.714;2022-10-31T13:45:53;20.10;71.50
10121;DHT22;5100;45.176;5.714;2022-10-31T13:48:35;20.10;71.20
10121;DHT22;5100;45.176;5.714;2022-10-31T13:51:04;20.10;71.20
10121;DHT22;5100;45.176;5.714;2022-10-31T13:56:29;20.20;70.90
10121;DHT22;5100;45.176;5.714;2022-10-31T14:01:34;20.20;71.40
10121;DHT22;5100;45.176;5.714;2022-10-31T14:04:07;20.20;71.60
10121;DHT22;5100;45.176;5.714;2022-10-31T14:07:13;20.20;71.80
10121;DHT22;5100;45.176;5.714;2022-10-31T14:09:49;20.30;71.90
10121;DHT22;5100;45.176;5.714;2022-10-31T14:12:34;20.30;71.80
10121;DHT22;5100;45.176;5.714;2022-10-31T14:15:26;20.30;72.00
10121;DHT22;5100;45.176;5.714;2022-10-31T14:17:56;20.30;71.90
10121;DHT22;5100;45.176;5.714;2022-10-31T14:20:40;20.30;71.90
10121;DHT22;5100;45.176;5.714;2022-10-31T14:26:17;20.30;72.00
10121;DHT22;5100;45.176;5.714;2022-10-31T14:28:44;20.30;72.00
10121;DHT22;5100;45.176;5.714;2022-10-31T14:31:29;20.30;72.10
10121;DHT22;5100;45.176;5.714;2022-10-31T14:33:59;20.30;71.90
10121;DHT22;5100;45.176;5.714;2022-10-31T14:39:27;20.30;71.30
10121;DHT22;5100;45.176;5.714;2022-10-31T14:42:26;20.30;71.10
10121;DHT22;5100;45.176;5.714;2022-10-31T14:45:21;20.30;71.90
10121;DHT22;5100;45.176;5.714;2022-10-31T14:48:10;20.30;72.20
10121;DHT22;5100;45.176;5.714;2022-10-31T14:50:49;20.30;72.00
10121;DHT22;5100;45.176;5.714;2022-10-31T14:53:26;20.30;71.70
10121;DHT22;5100;45.176;5.714;2022-10-31T14:55:55;20.30;71.50
10121;DHT22;5100;45.176;5.714;2022-10-31T14:58:43;20.30;71.60
10121;DHT22;5100;45.176;5.714;2022-10-31T15:01:24;20.30;71.10
10121;DHT22;5100;45.176;5.714;2022-10-31T15:03:50;20.30;70.50
10121;DHT22;5100;45.176;5.714;2022-10-31T15:06:20;20.30;70.10
10121;DHT22;5100;45.176;5.714;2022-10-31T15:08:49;20.30;69.90
10121;DHT22;5100;45.176;5.714;2022-10-31T15:11:24;20.30;70.50
10121;DHT22;5100;45.176;5.714;2022-10-31T15:13:53;20.30;69.80
10121;DHT22;5100;45.176;5.714;2022-10-31T15:16:43;20.30;69.20
10121;DHT22;5100;45.176;5.714;2022-10-31T15:19:13;20.30;69.20
10121;DHT22;5100;45.176;5.714;2022-10-31T15:21:43;20.20;69.20
10121;DHT22;5100;45.176;5.714;2022-10-31T15:24:13;20.20;69.50
10121;DHT22;5100;45.176;5.714;2022-10-31T15:26:48;20.20;69.60
10121;DHT22;5100;45.176;5.714;2022-10-31T15:29:20;20.20;69.80
10121;DHT22;5100;45.176;5.714;2022-10-31T15:31:51;20.20;69.90
10121;DHT22;5100;45.176;5.714;2022-10-31T15:34:42;20.20;70.00
10121;DHT22;5100;45.176;5.714;2022-10-31T15:37:20;20.20;70.20
10121;DHT22;5100;45.176;5.714;2022-10-31T15:39:47;20.20;70.30
10121;DHT22;5100;45.176;5.714;2022-10-31T15:42:33;20.20;70.40
10121;DHT22;5100;45.176;5.714;2022-10-31T15:47:37;20.10;70.40
10121;DHT22;5100;45.176;5.714;2022-10-31T15:50:06;20.10;70.40
10121;DHT22;5100;45.176;5.714;2022-10-31T15:52:46;20.10;70.30
10121;DHT22;5100;45.176;5.714;2022-10-31T15:55:21;20.10;70.40
10121;DHT22;5100;45.176;5.714;2022-10-31T15:57:51;20.10;70.70
10121;DHT22;5100;45.176;5.714;2022-10-31T16:00:29;20.10;70.20
10121;DHT22;5100;45.176;5.714;2022-10-31T16:03:21;20.10;70.40
10121;DHT22;5100;45.176;5.714;2022-10-31T16:05:53;20.10;70.80
10121;DHT22;5100;45.176;5.714;2022-10-31T16:16:18;20.00;70.40
10121;DHT22;5100;45.176;5.714;2022-10-31T16:18:46;19.90;70.40
10121;DHT22;5100;45.176;5.714;2022-10-31T16:21:14;19.90;70.50
10121;DHT22;5100;45.176;5.714;2022-10-31T16:23:45;19.90;70.50
10121;DHT22;5100;45.176;5.714;2022-10-31T16:26:17;19.90;70.40
10121;DHT22;5100;45.176;5.714;2022-10-31T16:28:52;19.90;70.80
10121;DHT22;5100;45.176;5.714;2022-10-31T16:31:29;19.90;70.50
10121;DHT22;5100;45.176;5.714;2022-10-31T16:34:13;19.90;70.60
10121;DHT22;5100;45.176;5.714;2022-10-31T16:36:40;19.90;70.60
10121;DHT22;5100;45.176;5.714;2022-10-31T16:39:07;19.90;71.10
10121;DHT22;5100;45.176;5.714;2022-10-31T16:41:39;19.90;71.30
10121;DHT22;5100;45.176;5.714;2022-10-31T16:44:16;19.90;70.90
10121;DHT22;5100;45.176;5.714;2022-10-31T16:46:42;20.00;71.20
10121;DHT22;5100;45.176;5.714;2022-10-31T16:49:10;20.00;70.80
10121;DHT22;5100;45.176;5.714;2022-10-31T16:51:36;20.00;70.70
10121;DHT22;5100;45.176;5.714;2022-10-31T16:54:02;19.90;70.80
10121;DHT22;5100;45.176;5.714;2022-10-31T16:56:30;19.90;71.30
10121;DHT22;5100;45.176;5.714;2022-10-31T16:59:02;19.90;71.10
10121;DHT22;5100;45.176;5.714;2022-10-31T17:01:29;19.80;71.30
10121;DHT22;5100;45.176;5.714;2022-10-31T17:03:55;19.80;71.70
10121;DHT22;5100;45.176;5.714;2022-10-31T17:06:21;19.80;71.60
10121;DHT22;5100;45.176;5.714;2022-10-31T17:08:47;19.80;71.60
10121;DHT22;5100;45.176;5.714;2022-10-31T17:11:22;19.80;72.00
10121;DHT22;5100;45.176;5.714;2022-10-31T17:13:50;19.70;72.10
10121;DHT22;5100;45.176;5.714;2022-10-31T17:16:16;19.70;72.00
10121;DHT22;5100;45.176;5.714;2022-10-31T17:18:42;19.70;72.20
10121;DHT22;5100;45.176;5.714;2022-10-31T17:21:18;19.70;72.40
10121;DHT22;5100;45.176;5.714;2022-10-31T17:23:46;19.70;72.30
10121;DHT22;5100;45.176;5.714;2022-10-31T17:26:12;19.60;72.40
10121;DHT22;5100;45.176;5.714;2022-10-31T17:28:38;19.60;72.50
10121;DHT22;5100;45.176;5.714;2022-10-31T17:31:04;19.60;72.90
10121;DHT22;5100;45.176;5.714;2022-10-31T17:33:30;19.50;73.00
10121;DHT22;5100;45.176;5.714;2022-10-31T17:35:56;19.50;72.80
10121;DHT22;5100;45.176;5.714;2022-10-31T17:38:22;19.50;72.80
10121;DHT22;5100;45.176;5.714;2022-10-31T17:40:48;19.50;72.80
10121;DHT22;5100;45.176;5.714;2022-10-31T17:43:14;19.50;72.90
10121;DHT22;5100;45.176;5.714;2022-10-31T17:45:41;19.40;73.00
10121;DHT22;5100;45.176;5.714;2022-10-31T17:48:10;19.40;73.00
10121;DHT22;5100;45.176;5.714;2022-10-31T17:50:36;19.40;72.70
10121;DHT22;5100;45.176;5.714;2022-10-31T17:53:02;19.30;72.60
10121;DHT22;5100;45.176;5.714;2022-10-31T17:55:30;19.30;72.90
10121;DHT22;5100;45.176;5.714;2022-10-31T17:57:56;19.30;72.60
10121;DHT22;5100;45.176;5.714;2022-10-31T18:00:22;19.30;72.50
10121;DHT22;5100;45.176;5.714;2022-10-31T18:02:50;19.30;72.40
10121;DHT22;5100;45.176;5.714;2022-10-31T18:05:16;19.30;72.30
10121;DHT22;5100;45.176;5.714;2022-10-31T18:07:42;19.30;72.20
10121;DHT22;5100;45.176;5.714;2022-10-31T18:10:08;19.30;72.20
10121;DHT22;5100;45.176;5.714;2022-10-31T18:12:35;19.20;72.10
10121;DHT22;5100;45.176;5.714;2022-10-31T18:15:02;19.20;72.00
10121;DHT22;5100;45.176;5.714;2022-10-31T18:17:28;19.20;72.20
10121;DHT22;5100;45.176;5.714;2022-10-31T18:19:54;19.20;72.30
10121;DHT22;5100;45.176;5.714;2022-10-31T18:22:20;19.20;72.30
10121;DHT22;5100;45.176;5.714;2022-10-31T18:24:47;19.20;72.20
10121;DHT22;5100;45.176;5.714;2022-10-31T18:27:12;19.20;72.30
10121;DHT22;5100;45.176;5.714;2022-10-31T18:29:38;19.20;72.20
10121;DHT22;5100;45.176;5.714;2022-10-31T18:32:04;19.20;72.50
10121;DHT22;5100;45.176;5.714;2022-10-31T18:34:32;19.20;72.60
10121;DHT22;5100;45.176;5.714;2022-10-31T18:36:58;19.20;72.70
10121;DHT22;5100;45.176;5.714;2022-10-31T18:39:24;19.20;72.80